Time;durP1;ratioP1;P1;durP2;ratioP2;P2;SDS_P1;SDS_P2;PMS_P1;PMS_P2;Temp;Humidity;BMP_temperature;BMP_pressure;BME280_temperature;BME280_humidity;BME280_pressure;Samples;Min_cycle;Max_cycle;Signal;HPM_P1;HPM_P2
2022/10/04 00:03:51;;;;;;;2.83;1.70;;;17.80;56.30;;;;;;10361388;28;20076;-59
2022/10/04 00:08:57;;;;;;;1.50;1.10;;;17.80;56.20;;;;;;10361356;28;20142;-59
2022/10/04 00:14:05;;;;;;;2.70;1.20;;;17.80;56.10;;;;;;10377863;28;20076;-58
2022/10/04 00:19:18;;;;;;;1.70;1.08;;;17.80;56.00;;;;;;10360934;28;20354;-59
2022/10/04 00:24:27;;;;;;;2.00;1.30;;;17.80;55.90;;;;;;10362210;28;20076;-59
2022/10/04 00:29:33;;;;;;;2.30;1.50;;;17.80;55.80;;;;;;10361801;28;20113;-59
2022/10/04 00:34:34;;;;;;;3.05;1.05;;;17.80;55.80;;;;;;10360614;28;20015;-59
2022/10/04 00:39:34;;;;;;;2.58;1.15;;;17.80;55.80;;;;;;10381091;28;20046;-59
2022/10/04 00:44:54;;;;;;;2.53;0.90;;;17.80;55.70;;;;;;10368554;28;20370;-62
2022/10/04 00:50:00;;;;;;;;;;;17.70;55.50;;;;;;10369579;28;20421;-59
2022/10/04 00:55:07;;;;;;;2.78;1.20;;;17.70;55.40;;;;;;10398836;28;19913;-58
2022/10/04 01:00:15;;;;;;;1.77;0.95;;;17.70;55.40;;;;;;10374004;28;20014;-59
2022/10/04 01:05:28;;;;;;;2.05;1.30;;;17.70;55.30;;;;;;10366977;28;20014;-59
2022/10/04 01:10:43;;;;;;;2.75;1.15;;;17.80;55.20;;;;;;10368159;28;20029;-59
2022/10/04 01:16:14;;;;;;;3.78;1.08;;;17.80;55.20;;;;;;10367978;28;20050;-59
2022/10/04 01:21:21;;;;;;;1.50;0.80;;;17.70;55.00;;;;;;10368057;28;20026;-59
2022/10/04 01:26:33;;;;;;;2.17;1.25;;;17.80;55.00;;;;;;10367260;28;20025;-58
2022/10/04 01:31:41;;;;;;;3.03;1.20;;;17.70;54.80;;;;;;10367807;28;20034;-59
2022/10/04 01:36:44;;;;;;;1.58;0.98;;;17.70;54.80;;;;;;10366218;28;20022;-59
2022/10/04 01:42:10;;;;;;;1.27;0.77;;;17.70;54.70;;;;;;10366122;28;20121;-58
2022/10/04 01:47:23;;;;;;;2.60;1.40;;;17.70;54.60;;;;;;10352142;28;20076;-59
2022/10/04 01:52:35;;;;;;;1.88;0.70;;;17.70;54.50;;;;;;10365955;28;20676;-58
2022/10/04 01:57:43;;;;;;;3.15;1.08;;;17.70;55.20;;;;;;10373062;28;20125;-58
2022/10/04 02:03:07;;;;;;;2.53;1.23;;;17.70;54.40;;;;;;10365709;28;20080;-57
2022/10/04 02:08:15;;;;;;;3.30;1.10;;;17.70;54.40;;;;;;10364921;28;20025;-57
2022/10/04 02:13:17;;;;;;;3.03;0.82;;;17.70;54.20;;;;;;10365090;28;20509;-57
2022/10/04 02:18:20;;;;;;;1.83;0.93;;;17.70;54.20;;;;;;10364229;28;20032;-57
2022/10/04 02:23:22;;;;;;;1.63;1.10;;;17.70;54.90;;;;;;10364644;28;20018;-57
2022/10/04 02:28:24;;;;;;;3.60;1.42;;;17.50;56.00;;;;;;10365043;28;20026;-57
2022/10/04 02:33:24;;;;;;;0.95;0.77;;;17.40;56.90;;;;;;10364313;28;20105;-57
2022/10/04 02:38:33;;;;;;;1.77;1.30;;;17.30;57.40;;;;;;10368908;28;20046;-57
2022/10/04 02:44:15;;;;;;;1.05;0.60;;;17.30;57.90;;;;;;10364393;28;20101;-57
2022/10/04 02:49:33;;;;;;;1.52;0.68;;;17.20;58.60;;;;;;10353301;28;20049;-57
2022/10/04 02:55:03;;;;;;;1.30;0.70;;;17.20;59.00;;;;;;10363266;28;20029;-57
2022/10/04 03:00:17;;;;;;;0.90;0.60;;;17.10;59.40;;;;;;10370661;28;20068;-57
2022/10/04 03:05:18;;;;;;;2.15;1.10;;;17.10;59.70;;;;;;10363802;28;20018;-57
2022/10/04 03:10:18;;;;;;;2.17;1.10;;;17.20;58.70;;;;;;10362826;28;20060;-57
2022/10/04 03:15:20;;;;;;;1.33;0.73;;;17.30;57.80;;;;;;10374544;28;20038;-57
2022/10/04 03:20:20;;;;;;;1.45;0.70;;;17.40;57.00;;;;;;10362382;28;20088;-57
2022/10/04 03:25:36;;;;;;;2.25;1.00;;;17.50;56.50;;;;;;10379209;28;20067;-57
2022/10/04 03:30:44;;;;;;;2.25;1.10;;;17.50;56.10;;;;;;10362738;28;20038;-57
2022/10/04 03:35:48;;;;;;;1.00;0.70;;;17.60;55.70;;;;;;10362024;28;20101;-57
2022/10/04 03:40:57;;;;;;;2.00;0.82;;;17.60;55.60;;;;;;10376813;28;20054;-57
2022/10/04 03:46:00;;;;;;;3.75;0.80;;;17.60;55.30;;;;;;10361801;28;20105;-57
2022/10/04 03:51:04;;;;;;;1.92;1.05;;;17.60;55.10;;;;;;10361847;28;20069;-56
2022/10/04 03:56:17;;;;;;;1.63;0.80;;;17.60;55.50;;;;;;10364145;28;20057;-57
2022/10/04 04:01:42;;;;;;;2.20;1.10;;;17.60;54.70;;;;;;10364913;28;20033;-57
2022/10/04 04:07:09;;;;;;;1.58;0.90;;;17.60;54.50;;;;;;10377272;28;20116;-57
2022/10/04 04:12:20;;;;;;;4.57;1.10;;;17.60;55.40;;;;;;10377572;28;20095;-57
2022/10/04 04:17:34;;;;;;;1.15;0.55;;;17.40;57.90;;;;;;10364218;28;20041;-57
2022/10/04 04:22:36;;;;;;;3.10;0.90;;;17.30;58.00;;;;;;10367287;28;20065;-57
2022/10/04 04:27:40;;;;;;;3.25;0.98;;;17.30;58.90;;;;;;10368949;28;20026;-57
2022/10/04 04:32:53;;;;;;;2.05;1.02;;;17.20;59.40;;;;;;10365100;28;20041;-57
2022/10/04 04:38:26;;;;;;;1.90;0.80;;;17.20;59.90;;;;;;10363474;28;20034;-56
2022/10/04 04:43:27;;;;;;;2.65;1.23;;;17.20;59.80;;;;;;10365406;28;20041;-58
2022/10/04 04:48:28;;;;;;;1.25;0.70;;;17.10;60.00;;;;;;10363977;28;20026;-56
2022/10/04 04:53:29;;;;;;;0.68;0.60;;;17.10;60.20;;;;;;10365044;28;20026;-56
2022/10/04 04:58:37;;;;;;;1.42;0.70;;;17.10;60.40;;;;;;10372087;28;20018;-58
2022/10/04 05:03:38;;;;;;;1.38;0.77;;;17.00;60.50;;;;;;10364126;28;20392;-56
2022/10/04 05:08:38;;;;;;;4.95;1.25;;;17.00;61.00;;;;;;10362642;28;20030;-58
2022/10/04 05:13:56;;;;;;;7.80;2.10;;;17.00;61.60;;;;;;10363358;28;20153;-58
2022/10/04 05:19:04;;;;;;;6.38;1.67;;;17.10;62.90;;;;;;10362730;28;20447;-59
2022/10/04 05:24:12;;;;;;;9.57;2.00;;;17.10;63.10;;;;;;10363967;28;20083;-58
2022/10/04 05:29:20;;;;;;;5.82;1.38;;;17.10;63.80;;;;;;10362667;28;20030;-55
2022/10/04 05:34:36;;;;;;;5.38;2.88;;;17.10;63.90;;;;;;10362228;28;20024;-56
2022/10/04 05:39:59;;;;;;;5.63;1.67;;;17.10;64.40;;;;;;10386486;28;20054;-58
2022/10/04 05:45:00;;;;;;;5.50;1.80;;;17.10;64.40;;;;;;10358454;28;20081;-56
2022/10/04 05:50:02;;;;;;;14.02;2.95;;;17.10;65.00;;;;;;10359195;28;20045;-58
2022/10/04 05:55:16;;;;;;;16.83;2.97;;;17.10;64.10;;;;;;10345450;28;20050;-57
2022/10/04 06:00:20;;;;;;;18.33;2.92;;;17.00;64.30;;;;;;10370185;28;20037;-58
2022/10/04 06:05:44;;;;;;;19.35;3.60;;;17.10;64.80;;;;;;10361676;28;20036;-57
2022/10/04 06:11:25;;;;;;;26.88;3.40;;;17.10;64.80;;;;;;10362209;28;20030;-58
2022/10/04 06:17:01;;;;;;;14.77;2.78;;;17.00;64.90;;;;;;10364710;28;20032;-58
2022/10/04 06:22:17;;;;;;;11.95;3.17;;;17.00;65.00;;;;;;10364879;28;20032;-57
2022/10/04 06:27:27;;;;;;;11.65;3.22;;;17.00;65.00;;;;;;10364107;28;20653;-57
2022/10/04 06:33:23;;;;;;;8.82;3.13;;;17.00;64.90;;;;;;10362458;28;20032;-57
2022/10/04 06:38:36;;;;;;;12.48;3.25;;;17.00;64.90;;;;;;10349543;28;20042;-57
2022/10/04 06:43:56;;;;;;;10.48;1.92;;;17.00;65.60;;;;;;10363917;28;20042;-57
2022/10/04 06:49:50;;;;;;;14.43;2.95;;;17.00;65.20;;;;;;10361459;28;20033;-56
2022/10/04 06:55:15;;;;;;;8.80;2.28;;;17.00;65.80;;;;;;10394446;28;20462;-56
2022/10/04 07:00:24;;;;;;;7.70;2.58;;;17.00;65.80;;;;;;10377138;28;20045;-56
2022/10/04 07:05:49;;;;;;;8.00;3.40;;;16.90;65.90;;;;;;10361778;28;20045;-57
2022/10/04 07:10:59;;;;;;;5.13;1.98;;;16.90;65.50;;;;;;10358424;28;20033;-57
2022/10/04 07:16:16;;;;;;;6.97;1.92;;;16.90;65.60;;;;;;10357300;28;20030;-57
2022/10/04 07:21:18;;;;;;;6.65;2.20;;;16.90;65.40;;;;;;10362306;28;20409;-56
2022/10/04 07:26:48;;;;;;;8.07;2.22;;;16.90;65.20;;;;;;10361933;28;20079;-57
2022/10/04 07:32:08;;;;;;;7.43;2.92;;;16.90;65.20;;;;;;10346745;28;20042;-57
2022/10/04 07:37:11;;;;;;;10.32;2.75;;;16.90;65.30;;;;;;10363996;28;20033;-61
2022/10/04 07:42:31;;;;;;;4.40;1.60;;;16.90;65.30;;;;;;10361671;28;20054;-57
2022/10/04 07:47:32;;;;;;;4.32;1.38;;;16.90;65.40;;;;;;10363962;28;20030;-58
2022/10/04 07:53:08;;;;;;;6.03;2.10;;;16.90;65.40;;;;;;10375543;28;20030;-58
2022/10/04 07:58:43;;;;;;;6.35;2.03;;;16.90;65.50;;;;;;10378568;28;20097;-58
2022/10/04 08:04:27;;;;;;;5.75;2.28;;;16.90;65.60;;;;;;10363184;28;20041;-58
2022/10/04 08:09:38;;;;;;;4.75;2.53;;;16.90;65.70;;;;;;10380992;28;20904;-57
2022/10/04 08:15:17;;;;;;;6.65;2.15;;;16.90;65.60;;;;;;10372636;28;20079;-57
2022/10/04 08:20:54;;;;;;;4.82;1.67;;;16.90;65.60;;;;;;10368824;28;20425;-58
2022/10/04 08:26:34;;;;;;;5.70;1.90;;;17.00;65.70;;;;;;10368824;28;20068;-58
2022/10/04 08:32:11;;;;;;;6.97;2.35;;;17.00;65.70;;;;;;10370071;28;20037;-58
2022/10/04 08:37:59;;;;;;;4.05;2.03;;;17.00;65.70;;;;;;10357472;28;20486;-58
2022/10/04 08:43:23;;;;;;;6.53;2.20;;;17.00;65.70;;;;;;10364100;28;20049;-57
2022/10/04 08:49:12;;;;;;;4.70;1.80;;;17.00;65.80;;;;;;10391919;28;20028;-57
2022/10/04 08:55:19;;;;;;;4.85;1.60;;;17.10;65.80;;;;;;10378726;28;20033;-57
2022/10/04 09:00:55;;;;;;;4.03;1.73;;;17.10;65.80;;;;;;10390721;28;20098;-57
2022/10/04 09:06:28;;;;;;;4.47;1.65;;;17.10;65.90;;;;;;10381298;28;20096;-58
2022/10/04 09:11:50;;;;;;;5.45;1.88;;;17.10;66.00;;;;;;10365615;28;20080;-58
2022/10/04 09:17:17;;;;;;;5.07;1.70;;;17.10;65.90;;;;;;10363056;28;20033;-58
2022/10/04 09:22:48;;;;;;;3.88;1.77;;;17.20;65.90;;;;;;10369460;28;20072;-58
2022/10/04 09:28:42;;;;;;;5.25;1.70;;;17.20;66.00;;;;;;10363642;28;20049;-58
2022/10/04 09:33:51;;;;;;;2.72;1.45;;;17.20;65.90;;;;;;10355374;28;20050;-58
2022/10/04 09:39:14;;;;;;;7.97;1.75;;;17.30;66.00;;;;;;10328421;28;1025105;-58
2022/10/04 09:44:46;;;;;;;3.63;1.83;;;17.20;65.90;;;;;;10366235;28;20061;-58
2022/10/04 09:50:00;;;;;;;6.85;2.15;;;17.30;66.00;;;;;;10365686;28;20034;-58
2022/10/04 09:55:52;;;;;;;3.13;1.63;;;17.30;66.00;;;;;;10370797;28;20669;-57
2022/10/04 10:01:36;;;;;;;4.53;2.15;;;17.40;66.10;;;;;;10360611;28;20413;-58
2022/10/04 10:07:17;;;;;;;4.28;1.42;;;17.40;66.10;;;;;;10370470;28;20051;-58
2022/10/04 10:18:00;;;;;;;3.33;1.30;;;17.40;66.20;;;;;;10363750;28;20069;-58
2022/10/04 10:23:36;;;;;;;4.55;1.50;;;17.40;66.30;;;;;;10365822;28;20050;-57
2022/10/04 10:29:10;;;;;;;5.47;1.83;;;17.40;66.20;;;;;;10380455;28;20026;-57
2022/10/04 10:34:41;;;;;;;4.72;1.50;;;17.40;66.30;;;;;;10365459;28;20026;-57
2022/10/04 10:40:26;;;;;;;4.68;1.52;;;17.50;66.30;;;;;;10376099;28;20078;-58
2022/10/04 10:46:15;;;;;;;4.57;2.67;;;17.50;66.40;;;;;;10366944;28;20084;-58
2022/10/04 10:51:49;;;;;;;4.85;1.60;;;17.50;66.40;;;;;;10354905;28;21044;-59
2022/10/04 10:57:41;;;;;;;3.58;1.45;;;17.50;66.40;;;;;;10384389;28;20018;-56
2022/10/04 11:03:30;;;;;;;3.92;1.95;;;17.50;66.50;;;;;;10322137;28;20096;-56
2022/10/04 11:09:27;;;;;;;5.40;2.65;;;17.60;66.70;;;;;;10368145;28;20361;-56
2022/10/04 11:14:48;;;;;;;5.53;2.28;;;17.60;66.40;;;;;;10362354;28;20600;-57
2022/10/04 11:20:08;;;;;;;4.65;2.22;;;17.60;66.60;;;;;;10360492;28;20474;-57
2022/10/04 11:25:24;;;;;;;9.52;2.83;;;17.70;66.60;;;;;;10361771;28;20026;-56
2022/10/04 11:30:29;;;;;;;4.32;1.95;;;17.60;66.50;;;;;;10362622;28;20034;-57
2022/10/04 11:36:11;;;;;;;3.75;2.38;;;17.70;66.60;;;;;;10350767;28;20481;-56
2022/10/04 11:41:50;;;;;;;4.40;2.97;;;17.70;66.50;;;;;;10362428;28;20057;-56
2022/10/04 11:47:38;;;;;;;3.58;2.10;;;17.70;66.50;;;;;;10359197;28;20022;-56
2022/10/04 11:53:45;;;;;;;5.85;2.65;;;17.70;66.50;;;;;;10353289;28;20693;-58
2022/10/04 11:58:57;;;;;;;6.35;2.55;;;17.70;66.50;;;;;;10356958;28;20074;-57
2022/10/04 12:04:20;;;;;;;5.80;3.00;;;17.70;66.50;;;;;;10362873;28;20022;-57
2022/10/04 12:09:39;;;;;;;4.88;2.97;;;17.70;66.60;;;;;;10362772;28;20606;-58
2022/10/04 12:15:03;;;;;;;12.02;2.70;;;17.70;66.50;;;;;;10359515;28;20694;-59
2022/10/04 12:20:29;;;;;;;4.93;2.65;;;17.60;66.60;;;;;;10358198;28;20060;-58
2022/10/04 12:25:58;;;;;;;7.40;2.90;;;17.60;66.50;;;;;;10343940;28;20032;-58
2022/10/04 12:31:10;;;;;;;7.25;2.70;;;17.60;66.60;;;;;;10348864;28;20034;-56
2022/10/04 12:36:20;;;;;;;7.68;3.55;;;17.60;66.80;;;;;;10363855;28;20097;-58
2022/10/04 12:41:30;;;;;;;;;;;17.60;66.90;;;;;;10363345;28;20648;-57
2022/10/04 12:47:21;;;;;;;10.27;3.88;;;17.60;67.10;;;;;;10382417;28;20012;-57
2022/10/04 12:52:26;;;;;;;13.93;3.87;;;17.70;67.40;;;;;;10358426;28;20038;-58
2022/10/04 12:57:55;;;;;;;13.93;3.67;;;17.70;67.60;;;;;;10368809;28;20084;-57
2022/10/04 13:03:49;;;;;;;8.70;3.53;;;17.70;67.20;;;;;;10377978;28;20013;-56
2022/10/04 13:09:18;;;;;;;7.55;3.50;;;17.70;67.30;;;;;;10331495;28;20388;-56
2022/10/04 13:14:34;;;;;;;7.95;3.80;;;17.70;67.20;;;;;;10369081;28;20049;-57
2022/10/04 13:19:49;;;;;;;9.70;3.78;;;17.70;67.10;;;;;;10368602;28;20117;-57
2022/10/04 13:25:23;;;;;;;7.43;3.45;;;17.70;67.20;;;;;;10369304;28;20044;-57
2022/10/04 13:31:31;;;;;;;8.73;3.15;;;17.70;67.10;;;;;;10367703;28;20677;-57
2022/10/04 13:36:53;;;;;;;8.38;3.50;;;17.70;67.10;;;;;;10381996;28;20575;-57
2022/10/04 13:42:23;;;;;;;9.85;3.50;;;17.70;67.10;;;;;;10353071;28;20049;-56
2022/10/04 13:47:55;;;;;;;8.15;3.75;;;17.70;67.30;;;;;;10365531;28;20478;-57
2022/10/04 13:59:04;;;;;;;10.55;3.30;;;17.80;67.60;;;;;;10373976;28;20034;-57
2022/10/04 14:04:33;;;;;;;9.15;4.75;;;17.80;67.60;;;;;;10365899;28;20022;-56
2022/10/04 14:09:54;;;;;;;9.18;3.67;;;17.80;67.70;;;;;;10366232;28;20115;-57
2022/10/04 14:15:29;;;;;;;9.35;3.78;;;17.70;67.30;;;;;;10365752;28;20030;-57
2022/10/04 14:21:37;;;;;;;6.18;3.47;;;17.70;67.30;;;;;;10361040;28;20053;-57
2022/10/04 14:27:13;;;;;;;10.07;3.53;;;17.70;67.30;;;;;;10366053;28;20048;-57
2022/10/04 14:32:30;;;;;;;7.97;4.13;;;17.70;67.10;;;;;;10380598;28;20042;-57
2022/10/04 14:37:57;;;;;;;9.55;4.13;;;17.60;67.00;;;;;;10352837;28;20428;-57
2022/10/04 14:43:56;;;;;;;9.90;5.38;;;17.60;67.30;;;;;;10365127;28;20069;-57
2022/10/04 14:49:24;;;;;;;13.57;5.47;;;17.80;69.30;;;;;;10352240;28;20080;-58
2022/10/04 14:54:41;;;;;;;30.98;7.13;;;17.80;67.70;;;;;;10359933;28;20068;-57
2022/10/04 15:00:15;;;;;;;22.55;6.43;;;17.70;67.90;;;;;;10365255;28;20049;-57
2022/10/04 15:06:17;;;;;;;15.40;5.93;;;17.70;68.30;;;;;;10353982;28;20033;-57
2022/10/04 15:11:56;;;;;;;12.20;4.53;;;17.70;68.30;;;;;;10330890;28;20054;-57
2022/10/04 15:17:10;;;;;;;11.95;4.35;;;17.70;68.60;;;;;;10362039;28;20014;-57
2022/10/04 15:22:35;;;;;;;8.77;4.25;;;18.00;68.00;;;;;;10364603;28;20021;-57
2022/10/04 15:27:50;;;;;;;11.25;3.85;;;18.10;67.30;;;;;;10368087;28;20021;-57
2022/10/04 15:33:40;;;;;;;14.48;7.15;;;18.20;68.80;;;;;;10363532;28;20030;-57
2022/10/04 15:38:52;;;;;;;15.52;6.28;;;18.30;70.70;;;;;;10360223;28;20077;-57
2022/10/04 15:44:12;;;;;;;9.30;5.68;;;18.40;71.30;;;;;;10361423;28;20555;-57
2022/10/04 15:49:39;;;;;;;36.85;32.53;;;18.50;71.90;;;;;;10361738;28;20460;-57
2022/10/04 15:55:09;;;;;;;37.10;14.57;;;18.60;73.30;;;;;;10361737;28;20034;-56
2022/10/04 16:00:42;;;;;;;19.33;9.10;;;18.60;73.20;;;;;;10359097;28;20037;-58
2022/10/04 16:06:15;;;;;;;22.00;10.85;;;19.10;71.10;;;;;;10362627;28;20022;-58
2022/10/04 16:17:48;;;;;;;17.77;8.20;;;18.80;70.90;;;;;;10363663;28;20022;-57
2022/10/04 16:23:31;;;;;;;13.40;7.57;;;18.70;71.10;;;;;;10369448;28;20030;-58
2022/10/04 16:29:12;;;;;;;16.77;7.93;;;18.60;71.00;;;;;;10362739;28;20045;-57
2022/10/04 16:34:21;;;;;;;;;;;18.60;70.90;;;;;;10372417;28;20037;-58
2022/10/04 16:39:59;;;;;;;22.65;7.80;;;18.50;70.70;;;;;;10379271;28;19919;-58
2022/10/04 16:45:06;;;;;;;17.65;7.30;;;18.50;71.10;;;;;;10363839;28;20117;-58
2022/10/04 16:50:11;;;;;;;20.23;7.00;;;18.40;71.70;;;;;;10366813;28;20140;-58
2022/10/04 16:55:34;;;;;;;16.48;7.07;;;18.40;71.70;;;;;;10367854;28;20084;-58
2022/10/04 17:00:37;;;;;;;19.27;6.68;;;18.40;71.60;;;;;;10384175;28;20014;-58
2022/10/04 17:06:13;;;;;;;21.83;8.02;;;18.40;71.80;;;;;;10348665;28;20030;-60
2022/10/04 17:11:40;;;;;;;16.00;6.72;;;18.40;71.40;;;;;;10362512;28;20109;-57
2022/10/04 17:16:56;;;;;;;16.15;7.03;;;18.30;71.60;;;;;;10356957;28;20030;-57
2022/10/04 17:22:21;;;;;;;13.80;6.22;;;18.10;71.90;;;;;;10365567;28;20064;-56
2022/10/04 17:27:45;;;;;;;17.65;6.90;;;18.10;72.10;;;;;;10380501;28;20022;-55
2022/10/04 17:33:10;;;;;;;18.15;6.60;;;18.20;72.10;;;;;;10354823;28;20069;-57
2022/10/04 17:38:42;;;;;;;16.42;8.27;;;18.10;72.00;;;;;;10367538;28;20105;-56
2022/10/04 17:43:54;;;;;;;16.55;6.75;;;18.10;71.90;;;;;;10367421;28;20052;-57
2022/10/04 17:55:15;;;;;;;15.57;7.30;;;18.10;71.70;;;;;;10366123;28;20042;-56
2022/10/04 18:00:23;;;;;;;9.97;5.40;;;18.10;71.70;;;;;;10367183;28;20109;-55
2022/10/04 18:06:00;;;;;;;16.08;6.18;;;18.10;71.90;;;;;;10365390;28;20060;-56
2022/10/04 18:11:29;;;;;;;15.30;6.22;;;18.00;71.90;;;;;;10351961;28;20046;-57
2022/10/04 18:16:49;;;;;;;10.38;5.63;;;18.00;71.90;;;;;;10364652;28;20071;-57
2022/10/04 18:21:55;;;;;;;10.48;5.78;;;18.10;71.70;;;;;;10362301;28;20056;-57
2022/10/04 18:27:23;;;;;;;12.05;6.40;;;18.00;71.60;;;;;;10365445;28;20506;-57
2022/10/04 18:32:24;;;;;;;12.07;6.07;;;18.10;71.50;;;;;;10362859;28;20030;-57
2022/10/04 18:37:36;;;;;;;8.20;5.20;;;18.00;71.40;;;;;;10379680;28;20022;-57
2022/10/04 18:42:41;;;;;;;13.43;5.65;;;18.00;71.60;;;;;;10355334;28;20041;-58
2022/10/04 18:47:42;;;;;;;10.13;5.40;;;18.00;71.70;;;;;;10363654;28;20038;-57
2022/10/04 18:53:18;;;;;;;11.07;5.53;;;18.00;71.60;;;;;;10363073;28;20042;-57
2022/10/04 19:04:55;;;;;;;9.55;5.93;;;18.00;72.10;;;;;;10361042;28;20108;-58
2022/10/04 19:10:08;;;;;;;10.75;6.38;;;18.00;72.50;;;;;;10378157;28;20041;-59
2022/10/04 19:15:20;;;;;;;13.13;5.95;;;18.00;72.50;;;;;;10361214;28;20013;-57
2022/10/04 19:20:42;;;;;;;9.23;6.30;;;18.00;72.10;;;;;;10360005;28;20022;-59
2022/10/04 19:25:47;;;;;;;9.95;4.97;;;18.10;72.50;;;;;;10362076;28;20477;-58
2022/10/04 19:31:29;;;;;;;11.38;4.97;;;18.10;72.40;;;;;;10362455;28;20045;-57
2022/10/04 19:36:45;;;;;;;9.75;5.03;;;18.00;72.10;;;;;;10363285;28;20033;-56
2022/10/04 19:42:11;;;;;;;8.25;5.18;;;17.90;72.20;;;;;;10376547;28;20042;-57
2022/10/04 19:47:33;;;;;;;8.10;5.45;;;17.90;72.20;;;;;;10359766;28;20022;-57
2022/10/04 19:52:58;;;;;;;12.95;4.60;;;17.80;72.20;;;;;;10368964;28;20054;-57
2022/10/04 19:58:30;;;;;;;9.60;6.28;;;17.80;72.00;;;;;;10370140;28;20029;-57
2022/10/04 20:03:31;;;;;;;6.68;3.63;;;17.80;71.80;;;;;;10368380;28;20025;-58
2022/10/04 20:08:52;;;;;;;10.35;4.95;;;17.80;71.70;;;;;;10369138;28;20097;-58
2022/10/04 20:14:08;;;;;;;8.25;4.68;;;17.80;71.70;;;;;;10390142;28;20061;-57
2022/10/04 20:19:27;;;;;;;6.07;4.43;;;17.80;72.20;;;;;;10386251;28;20044;-57
2022/10/04 20:24:36;;;;;;;5.70;3.75;;;17.80;71.70;;;;;;10358420;28;20057;-58
2022/10/04 20:29:37;;;;;;;7.95;3.97;;;17.80;71.50;;;;;;10370959;28;20088;-58
2022/10/04 20:34:37;;;;;;;8.32;4.65;;;17.80;71.20;;;;;;10370232;28;20026;-58
2022/10/04 20:39:38;;;;;;;7.03;4.20;;;17.70;71.10;;;;;;10369384;28;20107;-57
2022/10/04 20:44:54;;;;;;;5.22;3.95;;;17.70;71.00;;;;;;10369949;28;20539;-58
2022/10/04 20:49:56;;;;;;;9.57;3.40;;;17.70;71.00;;;;;;10369939;28;20030;-57
2022/10/04 20:55:00;;;;;;;6.25;3.70;;;17.70;71.00;;;;;;10351355;28;20022;-58
2022/10/04 21:00:04;;;;;;;6.30;4.10;;;17.70;70.90;;;;;;10405832;28;20101;-58
2022/10/04 21:05:22;;;;;;;5.82;3.80;;;17.70;70.80;;;;;;10369137;28;20034;-57
2022/10/04 21:10:22;;;;;;;7.38;4.43;;;17.70;70.80;;;;;;10369112;28;20038;-57
2022/10/04 21:15:23;;;;;;;5.43;3.70;;;17.70;70.80;;;;;;10368870;28;20022;-57
2022/10/04 21:20:44;;;;;;;8.15;3.55;;;17.70;70.70;;;;;;10375507;28;20045;-57
2022/10/04 21:25:45;;;;;;;6.38;3.72;;;17.70;70.60;;;;;;10370243;28;20025;-57
2022/10/04 21:30:46;;;;;;;5.05;3.72;;;17.70;70.60;;;;;;10366543;28;20477;-57
2022/10/04 21:35:51;;;;;;;4.38;3.08;;;17.70;70.60;;;;;;10366829;28;20121;-56
2022/10/04 21:40:51;;;;;;;6.18;4.00;;;17.70;70.60;;;;;;10367576;28;20046;-57
2022/10/04 21:45:52;;;;;;;7.38;3.10;;;17.70;70.60;;;;;;10370318;28;20109;-58
2022/10/04 21:50:54;;;;;;;6.47;4.10;;;17.70;70.50;;;;;;10366541;28;20041;-57
2022/10/04 21:55:54;;;;;;;4.63;3.35;;;17.70;70.50;;;;;;10367262;28;20077;-57
2022/10/04 22:00:55;;;;;;;6.32;3.53;;;17.70;70.50;;;;;;10369815;28;20057;-57
2022/10/04 22:05:56;;;;;;;4.53;3.42;;;17.70;70.50;;;;;;10365798;28;20169;-57
2022/10/04 22:10:56;;;;;;;5.28;3.40;;;17.70;70.40;;;;;;10365239;28;20397;-56
2022/10/04 22:15:57;;;;;;;4.80;2.78;;;17.70;70.40;;;;;;10364887;28;20049;-59
2022/10/04 22:20:59;;;;;;;6.15;3.50;;;17.70;70.40;;;;;;10366127;28;20026;-58
2022/10/04 22:26:01;;;;;;;4.05;2.70;;;17.70;70.40;;;;;;10364634;28;20556;-58
2022/10/04 22:31:15;;;;;;;4.97;3.00;;;17.70;70.30;;;;;;10364482;28;20037;-57
2022/10/04 22:36:37;;;;;;;4.43;2.88;;;17.60;70.30;;;;;;10364260;28;20101;-57
2022/10/04 22:41:44;;;;;;;6.57;3.42;;;17.70;70.30;;;;;;10376262;28;20517;-58
2022/10/04 22:46:54;;;;;;;5.45;3.42;;;17.70;70.30;;;;;;10368184;28;20030;-57
2022/10/04 22:51:57;;;;;;;5.05;3.00;;;17.70;70.20;;;;;;10363886;28;20496;-57
2022/10/04 22:56:58;;;;;;;5.35;3.20;;;17.70;70.30;;;;;;10371262;28;20025;-58
2022/10/04 23:02:01;;;;;;;4.97;2.80;;;17.70;70.20;;;;;;10363548;28;20033;-57
2022/10/04 23:07:02;;;;;;;4.35;3.40;;;17.60;70.10;;;;;;10363027;28;20500;-57
2022/10/04 23:12:07;;;;;;;6.07;3.17;;;17.60;70.20;;;;;;10364412;28;20097;-57
2022/10/04 23:17:26;;;;;;;7.95;3.70;;;17.60;70.10;;;;;;10362474;28;20030;-57
2022/10/04 23:22:29;;;;;;;4.60;2.88;;;17.60;70.10;;;;;;10364417;28;20022;-56
2022/10/04 23:27:30;;;;;;;5.40;3.28;;;17.60;70.10;;;;;;10362520;28;20030;-57
2022/10/04 23:32:32;;;;;;;5.13;2.80;;;17.60;70.00;;;;;;10362924;28;20030;-57
2022/10/04 23:37:33;;;;;;;4.70;3.15;;;17.60;70.10;;;;;;10361820;28;20049;-57
2022/10/04 23:42:35;;;;;;;5.32;2.95;;;17.60;70.00;;;;;;10362473;28;20056;-57
2022/10/04 23:47:36;;;;;;;4.68;3.20;;;17.60;70.00;;;;;;10363719;28;20026;-57
2022/10/04 23:52:39;;;;;;;4.40;3.30;;;17.60;70.00;;;;;;10362449;28;20037;-56
2022/10/04 23:57:39;;;;;;;4.80;2.80;;;17.60;70.00;;;;;;10370470;28;20629;-57
